Terminal Aerodrome Forecast
Issued by NWS Paducah, KY

Home | Current Version | Previous Version | Text Only | Print | Product List | Glossary On
Versions: 1 2 3 4 5 6 7 8 9 10 11 12
000
FTUS43 KPAH 281120
TAFPAH
TAF
KPAH 281120Z 2812/2912 14004KT P6SM SKC
     FM281500 17006KT P6SM FEW045
     FM281700 19009G16KT P6SM SCT050
     FM290000 18005KT P6SM FEW050=

USA.gov is the U.S. government's official web portal to all federal, state and local government web resources and services.